sensor_id;sensor_type;location;lat;lon;timestamp;P1;durP1;ratioP1;P2;durP2;ratioP2
16640;SDS011;8434;47.990;7.880;2022-11-21T00:00:56;4.27;;;1.20;;
16640;SDS011;8434;47.990;7.880;2022-11-21T00:03:41;2.10;;;1.00;;
16640;SDS011;8434;47.990;7.880;2022-11-21T00:06:26;1.97;;;1.00;;
16640;SDS011;8434;47.990;7.880;2022-11-21T00:09:12;4.17;;;1.30;;
16640;SDS011;8434;47.990;7.880;2022-11-21T00:11:57;4.40;;;1.20;;
16640;SDS011;8434;47.990;7.880;2022-11-21T00:14:42;1.90;;;1.10;;
16640;SDS011;8434;47.990;7.880;2022-11-21T00:17:27;5.70;;;1.37;;
16640;SDS011;8434;47.990;7.880;2022-11-21T00:20:12;4.07;;;1.20;;
16640;SDS011;8434;47.990;7.880;2022-11-21T00:22:56;6.60;;;2.53;;
16640;SDS011;8434;47.990;7.880;2022-11-21T00:25:43;4.50;;;1.10;;
16640;SDS011;8434;47.990;7.880;2022-11-21T00:28:27;4.87;;;1.40;;
16640;SDS011;8434;47.990;7.880;2022-11-21T00:31:19;2.83;;;1.23;;
16640;SDS011;8434;47.990;7.880;2022-11-21T00:34:04;5.57;;;1.70;;
16640;SDS011;8434;47.990;7.880;2022-11-21T00:36:49;3.80;;;1.20;;
16640;SDS011;8434;47.990;7.880;2022-11-21T00:39:34;2.93;;;1.53;;
16640;SDS011;8434;47.990;7.880;2022-11-21T00:42:20;5.53;;;1.50;;
16640;SDS011;8434;47.990;7.880;2022-11-21T00:45:05;4.37;;;1.63;;
16640;SDS011;8434;47.990;7.880;2022-11-21T00:47:50;7.63;;;1.30;;
16640;SDS011;8434;47.990;7.880;2022-11-21T00:50:35;3.33;;;1.17;;
16640;SDS011;8434;47.990;7.880;2022-11-21T00:53:20;7.37;;;1.67;;
16640;SDS011;8434;47.990;7.880;2022-11-21T00:56:05;4.03;;;1.43;;
16640;SDS011;8434;47.990;7.880;2022-11-21T00:58:51;4.00;;;2.40;;
16640;SDS011;8434;47.990;7.880;2022-11-21T01:01:36;5.07;;;1.50;;
16640;SDS011;8434;47.990;7.880;2022-11-21T01:04:21;6.17;;;1.47;;
16640;SDS011;8434;47.990;7.880;2022-11-21T01:07:06;3.17;;;1.30;;
16640;SDS011;8434;47.990;7.880;2022-11-21T01:09:51;7.43;;;1.77;;
16640;SDS011;8434;47.990;7.880;2022-11-21T01:12:36;3.70;;;1.13;;
16640;SDS011;8434;47.990;7.880;2022-11-21T01:15:22;5.07;;;1.90;;
16640;SDS011;8434;47.990;7.880;2022-11-21T01:18:07;5.87;;;1.67;;
16640;SDS011;8434;47.990;7.880;2022-11-21T01:20:53;5.17;;;1.43;;
16640;SDS011;8434;47.990;7.880;2022-11-21T01:23:37;2.97;;;1.53;;
16640;SDS011;8434;47.990;7.880;2022-11-21T01:26:23;5.30;;;1.67;;
16640;SDS011;8434;47.990;7.880;2022-11-21T01:29:08;5.17;;;1.23;;
16640;SDS011;8434;47.990;7.880;2022-11-21T01:31:55;5.67;;;1.43;;
16640;SDS011;8434;47.990;7.880;2022-11-21T01:34:39;6.63;;;2.03;;
16640;SDS011;8434;47.990;7.880;2022-11-21T01:37:24;4.67;;;1.43;;
16640;SDS011;8434;47.990;7.880;2022-11-21T01:40:09;6.33;;;1.37;;
16640;SDS011;8434;47.990;7.880;2022-11-21T01:42:57;4.97;;;1.33;;
16640;SDS011;8434;47.990;7.880;2022-11-21T01:45:51;5.93;;;1.40;;
16640;SDS011;8434;47.990;7.880;2022-11-21T01:48:38;6.30;;;1.80;;
16640;SDS011;8434;47.990;7.880;2022-11-21T01:51:25;7.67;;;1.43;;
16640;SDS011;8434;47.990;7.880;2022-11-21T01:54:12;5.83;;;1.40;;
16640;SDS011;8434;47.990;7.880;2022-11-21T01:56:58;4.20;;;1.67;;
16640;SDS011;8434;47.990;7.880;2022-11-21T01:59:45;5.10;;;1.60;;
16640;SDS011;8434;47.990;7.880;2022-11-21T02:02:31;6.53;;;1.30;;
16640;SDS011;8434;47.990;7.880;2022-11-21T02:05:19;3.50;;;1.23;;
16640;SDS011;8434;47.990;7.880;2022-11-21T02:08:06;5.03;;;1.53;;
16640;SDS011;8434;47.990;7.880;2022-11-21T02:10:55;5.23;;;1.33;;
16640;SDS011;8434;47.990;7.880;2022-11-21T02:13:42;3.30;;;1.70;;
16640;SDS011;8434;47.990;7.880;2022-11-21T02:16:27;8.03;;;1.57;;
16640;SDS011;8434;47.990;7.880;2022-11-21T02:19:16;3.90;;;1.27;;
16640;SDS011;8434;47.990;7.880;2022-11-21T02:22:06;3.67;;;1.20;;
16640;SDS011;8434;47.990;7.880;2022-11-21T02:28:01;5.07;;;1.57;;
16640;SDS011;8434;47.990;7.880;2022-11-21T02:30:46;4.80;;;1.00;;
16640;SDS011;8434;47.990;7.880;2022-11-21T02:33:31;5.63;;;1.60;;
16640;SDS011;8434;47.990;7.880;2022-11-21T02:36:37;2.73;;;1.13;;
16640;SDS011;8434;47.990;7.880;2022-11-21T02:39:29;3.83;;;0.97;;
16640;SDS011;8434;47.990;7.880;2022-11-21T02:42:17;5.70;;;1.40;;
16640;SDS011;8434;47.990;7.880;2022-11-21T02:45:09;4.57;;;1.50;;
16640;SDS011;8434;47.990;7.880;2022-11-21T02:47:57;5.43;;;1.10;;
16640;SDS011;8434;47.990;7.880;2022-11-21T02:50:43;4.83;;;1.30;;
16640;SDS011;8434;47.990;7.880;2022-11-21T02:53:29;4.57;;;2.13;;
16640;SDS011;8434;47.990;7.880;2022-11-21T02:56:13;2.97;;;1.20;;
16640;SDS011;8434;47.990;7.880;2022-11-21T02:58:58;5.53;;;1.10;;
16640;SDS011;8434;47.990;7.880;2022-11-21T03:01:44;4.83;;;1.20;;
16640;SDS011;8434;47.990;7.880;2022-11-21T03:04:30;6.33;;;1.13;;
16640;SDS011;8434;47.990;7.880;2022-11-21T03:07:15;6.87;;;1.20;;
16640;SDS011;8434;47.990;7.880;2022-11-21T03:09:59;7.50;;;1.33;;
16640;SDS011;8434;47.990;7.880;2022-11-21T03:12:44;3.67;;;0.90;;
16640;SDS011;8434;47.990;7.880;2022-11-21T03:15:30;3.20;;;1.27;;
16640;SDS011;8434;47.990;7.880;2022-11-21T03:18:17;2.60;;;1.00;;
16640;SDS011;8434;47.990;7.880;2022-11-21T03:21:02;2.70;;;0.70;;
16640;SDS011;8434;47.990;7.880;2022-11-21T03:23:48;4.47;;;1.03;;
16640;SDS011;8434;47.990;7.880;2022-11-21T03:26:32;2.60;;;0.80;;
16640;SDS011;8434;47.990;7.880;2022-11-21T03:29:17;2.60;;;0.87;;
16640;SDS011;8434;47.990;7.880;2022-11-21T03:32:03;2.37;;;0.87;;
16640;SDS011;8434;47.990;7.880;2022-11-21T03:34:49;2.60;;;1.07;;
16640;SDS011;8434;47.990;7.880;2022-11-21T03:37:34;3.03;;;1.20;;
16640;SDS011;8434;47.990;7.880;2022-11-21T03:40:19;1.73;;;0.90;;
16640;SDS011;8434;47.990;7.880;2022-11-21T03:43:04;2.43;;;0.77;;
16640;SDS011;8434;47.990;7.880;2022-11-21T03:45:50;2.60;;;0.87;;
16640;SDS011;8434;47.990;7.880;2022-11-21T03:48:35;2.30;;;0.90;;
16640;SDS011;8434;47.990;7.880;2022-11-21T03:51:23;4.20;;;0.93;;
16640;SDS011;8434;47.990;7.880;2022-11-21T03:54:08;2.13;;;0.90;;
16640;SDS011;8434;47.990;7.880;2022-11-21T03:56:53;1.90;;;0.77;;
16640;SDS011;8434;47.990;7.880;2022-11-21T03:59:38;1.90;;;0.80;;
16640;SDS011;8434;47.990;7.880;2022-11-21T04:02:23;2.40;;;1.03;;
16640;SDS011;8434;47.990;7.880;2022-11-21T04:05:08;2.13;;;0.57;;
16640;SDS011;8434;47.990;7.880;2022-11-21T04:07:55;1.53;;;0.60;;
16640;SDS011;8434;47.990;7.880;2022-11-21T04:10:45;1.03;;;0.73;;
16640;SDS011;8434;47.990;7.880;2022-11-21T04:13:30;2.03;;;0.70;;
16640;SDS011;8434;47.990;7.880;2022-11-21T04:16:15;7.53;;;1.83;;
16640;SDS011;8434;47.990;7.880;2022-11-21T04:19:00;2.23;;;0.80;;
16640;SDS011;8434;47.990;7.880;2022-11-21T04:21:45;5.93;;;1.10;;
16640;SDS011;8434;47.990;7.880;2022-11-21T04:24:31;3.73;;;1.10;;
16640;SDS011;8434;47.990;7.880;2022-11-21T04:27:16;4.33;;;1.47;;
16640;SDS011;8434;47.990;7.880;2022-11-21T04:30:01;6.13;;;1.53;;
16640;SDS011;8434;47.990;7.880;2022-11-21T04:32:46;2.83;;;1.00;;
16640;SDS011;8434;47.990;7.880;2022-11-21T04:35:32;4.60;;;1.20;;
16640;SDS011;8434;47.990;7.880;2022-11-21T04:38:17;2.83;;;1.00;;
16640;SDS011;8434;47.990;7.880;2022-11-21T04:41:03;4.47;;;1.30;;
16640;SDS011;8434;47.990;7.880;2022-11-21T04:43:48;4.23;;;1.20;;
16640;SDS011;8434;47.990;7.880;2022-11-21T04:46:33;4.13;;;0.90;;
16640;SDS011;8434;47.990;7.880;2022-11-21T04:49:18;6.10;;;1.27;;
16640;SDS011;8434;47.990;7.880;2022-11-21T04:52:03;1.83;;;0.70;;
16640;SDS011;8434;47.990;7.880;2022-11-21T04:54:48;4.07;;;1.10;;
16640;SDS011;8434;47.990;7.880;2022-11-21T04:57:34;5.37;;;1.07;;
16640;SDS011;8434;47.990;7.880;2022-11-21T05:00:19;5.00;;;1.27;;
16640;SDS011;8434;47.990;7.880;2022-11-21T05:03:05;3.23;;;1.20;;
16640;SDS011;8434;47.990;7.880;2022-11-21T05:05:50;3.57;;;1.43;;
16640;SDS011;8434;47.990;7.880;2022-11-21T05:08:35;4.10;;;1.40;;
16640;SDS011;8434;47.990;7.880;2022-11-21T05:11:20;3.93;;;1.40;;
16640;SDS011;8434;47.990;7.880;2022-11-21T05:14:32;1.63;;;1.10;;
16640;SDS011;8434;47.990;7.880;2022-11-21T05:17:17;3.43;;;0.90;;
16640;SDS011;8434;47.990;7.880;2022-11-21T05:20:02;1.73;;;0.70;;
16640;SDS011;8434;47.990;7.880;2022-11-21T05:22:50;1.57;;;0.83;;
16640;SDS011;8434;47.990;7.880;2022-11-21T05:25:35;4.03;;;1.20;;
16640;SDS011;8434;47.990;7.880;2022-11-21T05:28:20;2.83;;;0.70;;
16640;SDS011;8434;47.990;7.880;2022-11-21T05:31:06;3.73;;;1.93;;
16640;SDS011;8434;47.990;7.880;2022-11-21T05:33:51;2.30;;;0.73;;
16640;SDS011;8434;47.990;7.880;2022-11-21T05:36:35;1.90;;;0.90;;
16640;SDS011;8434;47.990;7.880;2022-11-21T05:39:20;4.90;;;1.00;;
16640;SDS011;8434;47.990;7.880;2022-11-21T05:42:05;2.50;;;0.80;;
16640;SDS011;8434;47.990;7.880;2022-11-21T05:44:50;5.10;;;1.30;;
16640;SDS011;8434;47.990;7.880;2022-11-21T05:47:35;7.10;;;1.20;;
16640;SDS011;8434;47.990;7.880;2022-11-21T05:50:21;6.10;;;1.40;;
16640;SDS011;8434;47.990;7.880;2022-11-21T05:53:06;3.97;;;1.10;;
16640;SDS011;8434;47.990;7.880;2022-11-21T05:55:51;2.67;;;0.90;;
16640;SDS011;8434;47.990;7.880;2022-11-21T05:58:36;1.53;;;0.60;;
16640;SDS011;8434;47.990;7.880;2022-11-21T06:01:21;3.00;;;0.83;;
16640;SDS011;8434;47.990;7.880;2022-11-21T06:04:21;6.67;;;1.33;;
16640;SDS011;8434;47.990;7.880;2022-11-21T06:07:06;2.93;;;1.07;;
16640;SDS011;8434;47.990;7.880;2022-11-21T06:09:51;4.93;;;1.00;;
16640;SDS011;8434;47.990;7.880;2022-11-21T06:12:36;3.93;;;1.43;;
16640;SDS011;8434;47.990;7.880;2022-11-21T06:15:21;3.30;;;0.80;;
16640;SDS011;8434;47.990;7.880;2022-11-21T06:18:06;6.07;;;1.20;;
16640;SDS011;8434;47.990;7.880;2022-11-21T06:20:52;2.80;;;0.80;;
16640;SDS011;8434;47.990;7.880;2022-11-21T06:23:37;11.33;;;1.17;;
16640;SDS011;8434;47.990;7.880;2022-11-21T06:26:23;2.97;;;0.83;;
16640;SDS011;8434;47.990;7.880;2022-11-21T06:29:09;4.57;;;0.90;;
16640;SDS011;8434;47.990;7.880;2022-11-21T06:31:54;6.10;;;0.80;;
16640;SDS011;8434;47.990;7.880;2022-11-21T06:34:39;2.40;;;0.90;;
16640;SDS011;8434;47.990;7.880;2022-11-21T06:37:25;2.07;;;0.90;;
16640;SDS011;8434;47.990;7.880;2022-11-21T06:40:11;2.53;;;1.27;;
16640;SDS011;8434;47.990;7.880;2022-11-21T06:42:56;5.20;;;1.33;;
16640;SDS011;8434;47.990;7.880;2022-11-21T06:45:41;2.67;;;1.00;;
16640;SDS011;8434;47.990;7.880;2022-11-21T06:48:26;2.23;;;1.00;;
16640;SDS011;8434;47.990;7.880;2022-11-21T06:51:12;4.13;;;1.23;;
16640;SDS011;8434;47.990;7.880;2022-11-21T06:53:58;1.93;;;0.90;;
16640;SDS011;8434;47.990;7.880;2022-11-21T06:56:43;3.63;;;0.93;;
16640;SDS011;8434;47.990;7.880;2022-11-21T06:59:28;5.17;;;1.10;;
16640;SDS011;8434;47.990;7.880;2022-11-21T07:02:14;1.93;;;0.93;;
16640;SDS011;8434;47.990;7.880;2022-11-21T07:04:59;4.80;;;1.07;;
16640;SDS011;8434;47.990;7.880;2022-11-21T07:07:44;3.00;;;1.10;;
16640;SDS011;8434;47.990;7.880;2022-11-21T07:10:30;4.77;;;1.00;;
16640;SDS011;8434;47.990;7.880;2022-11-21T07:13:15;2.70;;;1.00;;
16640;SDS011;8434;47.990;7.880;2022-11-21T07:16:07;3.70;;;1.10;;
16640;SDS011;8434;47.990;7.880;2022-11-21T07:18:52;4.67;;;1.40;;
16640;SDS011;8434;47.990;7.880;2022-11-21T07:21:36;2.93;;;1.07;;
16640;SDS011;8434;47.990;7.880;2022-11-21T07:24:21;3.53;;;1.07;;
16640;SDS011;8434;47.990;7.880;2022-11-21T07:27:07;4.13;;;1.30;;
16640;SDS011;8434;47.990;7.880;2022-11-21T07:29:52;5.20;;;1.33;;
16640;SDS011;8434;47.990;7.880;2022-11-21T07:32:39;3.80;;;1.57;;
16640;SDS011;8434;47.990;7.880;2022-11-21T07:35:24;6.97;;;1.53;;
16640;SDS011;8434;47.990;7.880;2022-11-21T07:38:10;4.60;;;1.33;;
16640;SDS011;8434;47.990;7.880;2022-11-21T07:40:55;7.10;;;1.60;;
16640;SDS011;8434;47.990;7.880;2022-11-21T07:43:41;5.30;;;1.20;;
16640;SDS011;8434;47.990;7.880;2022-11-21T07:46:25;3.73;;;1.40;;
16640;SDS011;8434;47.990;7.880;2022-11-21T07:49:10;5.23;;;1.70;;
16640;SDS011;8434;47.990;7.880;2022-11-21T07:51:55;9.37;;;2.37;;
16640;SDS011;8434;47.990;7.880;2022-11-21T07:54:40;5.70;;;1.50;;
16640;SDS011;8434;47.990;7.880;2022-11-21T07:57:25;6.50;;;1.50;;
16640;SDS011;8434;47.990;7.880;2022-11-21T08:00:12;7.37;;;1.90;;
16640;SDS011;8434;47.990;7.880;2022-11-21T08:02:57;8.70;;;1.87;;
16640;SDS011;8434;47.990;7.880;2022-11-21T08:05:42;4.57;;;1.27;;
16640;SDS011;8434;47.990;7.880;2022-11-21T08:08:27;9.83;;;1.83;;
16640;SDS011;8434;47.990;7.880;2022-11-21T08:11:12;4.03;;;1.83;;
16640;SDS011;8434;47.990;7.880;2022-11-21T08:13:57;3.50;;;1.80;;
16640;SDS011;8434;47.990;7.880;2022-11-21T08:16:44;6.80;;;1.40;;
16640;SDS011;8434;47.990;7.880;2022-11-21T08:19:29;8.27;;;1.77;;
16640;SDS011;8434;47.990;7.880;2022-11-21T08:22:14;5.90;;;1.47;;
16640;SDS011;8434;47.990;7.880;2022-11-21T08:24:59;5.17;;;1.70;;
16640;SDS011;8434;47.990;7.880;2022-11-21T08:27:44;8.73;;;2.27;;
16640;SDS011;8434;47.990;7.880;2022-11-21T08:30:29;3.83;;;1.40;;
16640;SDS011;8434;47.990;7.880;2022-11-21T08:33:16;6.93;;;1.50;;
16640;SDS011;8434;47.990;7.880;2022-11-21T08:36:02;5.27;;;1.67;;
16640;SDS011;8434;47.990;7.880;2022-11-21T08:38:47;7.23;;;1.70;;
16640;SDS011;8434;47.990;7.880;2022-11-21T08:41:32;6.23;;;2.27;;
16640;SDS011;8434;47.990;7.880;2022-11-21T08:44:35;7.70;;;2.00;;
16640;SDS011;8434;47.990;7.880;2022-11-21T08:47:20;8.33;;;1.60;;
16640;SDS011;8434;47.990;7.880;2022-11-21T08:50:06;5.20;;;1.60;;
16640;SDS011;8434;47.990;7.880;2022-11-21T08:52:51;7.83;;;2.00;;
16640;SDS011;8434;47.990;7.880;2022-11-21T08:55:36;7.03;;;2.17;;
16640;SDS011;8434;47.990;7.880;2022-11-21T08:58:21;7.87;;;2.13;;
16640;SDS011;8434;47.990;7.880;2022-11-21T09:01:06;7.83;;;2.30;;
16640;SDS011;8434;47.990;7.880;2022-11-21T09:03:51;6.90;;;2.00;;
16640;SDS011;8434;47.990;7.880;2022-11-21T09:06:37;6.70;;;2.00;;
16640;SDS011;8434;47.990;7.880;2022-11-21T09:09:22;5.10;;;1.60;;
16640;SDS011;8434;47.990;7.880;2022-11-21T09:12:07;8.07;;;1.60;;
16640;SDS011;8434;47.990;7.880;2022-11-21T09:14:52;6.27;;;1.73;;
16640;SDS011;8434;47.990;7.880;2022-11-21T09:17:58;7.90;;;1.90;;
16640;SDS011;8434;47.990;7.880;2022-11-21T09:20:46;4.87;;;1.90;;
16640;SDS011;8434;47.990;7.880;2022-11-21T09:23:33;7.87;;;2.10;;
16640;SDS011;8434;47.990;7.880;2022-11-21T09:26:17;6.37;;;1.63;;
16640;SDS011;8434;47.990;7.880;2022-11-21T09:29:02;6.13;;;1.87;;
16640;SDS011;8434;47.990;7.880;2022-11-21T09:31:47;5.83;;;1.60;;
16640;SDS011;8434;47.990;7.880;2022-11-21T09:34:33;4.90;;;1.63;;
16640;SDS011;8434;47.990;7.880;2022-11-21T09:37:18;7.90;;;2.20;;
16640;SDS011;8434;47.990;7.880;2022-11-21T09:40:05;9.97;;;1.83;;
16640;SDS011;8434;47.990;7.880;2022-11-21T09:45:51;7.43;;;2.13;;
16640;SDS011;8434;47.990;7.880;2022-11-21T09:48:40;8.17;;;2.50;;
16640;SDS011;8434;47.990;7.880;2022-11-21T09:51:26;7.63;;;2.30;;
16640;SDS011;8434;47.990;7.880;2022-11-21T09:54:16;8.43;;;1.53;;
16640;SDS011;8434;47.990;7.880;2022-11-21T09:57:04;5.53;;;1.83;;
16640;SDS011;8434;47.990;7.880;2022-11-21T09:59:49;5.87;;;2.20;;
16640;SDS011;8434;47.990;7.880;2022-11-21T10:02:35;5.93;;;1.77;;
16640;SDS011;8434;47.990;7.880;2022-11-21T10:05:22;6.40;;;1.90;;
16640;SDS011;8434;47.990;7.880;2022-11-21T10:08:13;7.77;;;1.90;;
16640;SDS011;8434;47.990;7.880;2022-11-21T10:11:03;6.33;;;1.67;;
16640;SDS011;8434;47.990;7.880;2022-11-21T10:13:56;6.30;;;2.87;;
16640;SDS011;8434;47.990;7.880;2022-11-21T10:16:47;5.73;;;1.90;;
16640;SDS011;8434;47.990;7.880;2022-11-21T10:19:38;9.20;;;1.90;;
16640;SDS011;8434;47.990;7.880;2022-11-21T10:22:36;10.97;;;2.20;;
16640;SDS011;8434;47.990;7.880;2022-11-21T10:25:27;10.90;;;2.30;;
16640;SDS011;8434;47.990;7.880;2022-11-21T10:28:14;7.07;;;1.93;;
16640;SDS011;8434;47.990;7.880;2022-11-21T10:31:01;8.80;;;2.53;;
16640;SDS011;8434;47.990;7.880;2022-11-21T10:33:46;5.07;;;1.77;;
16640;SDS011;8434;47.990;7.880;2022-11-21T10:36:32;9.97;;;2.53;;
16640;SDS011;8434;47.990;7.880;2022-11-21T10:39:21;7.90;;;1.80;;
16640;SDS011;8434;47.990;7.880;2022-11-21T10:42:11;9.03;;;1.70;;
16640;SDS011;8434;47.990;7.880;2022-11-21T10:44:59;10.47;;;2.17;;
16640;SDS011;8434;47.990;7.880;2022-11-21T10:48:00;6.63;;;1.77;;
16640;SDS011;8434;47.990;7.880;2022-11-21T10:50:49;6.57;;;1.40;;
16640;SDS011;8434;47.990;7.880;2022-11-21T10:53:36;7.70;;;1.63;;
16640;SDS011;8434;47.990;7.880;2022-11-21T10:56:39;4.93;;;1.40;;
16640;SDS011;8434;47.990;7.880;2022-11-21T10:59:24;6.13;;;1.93;;
16640;SDS011;8434;47.990;7.880;2022-11-21T11:02:21;4.63;;;1.40;;
16640;SDS011;8434;47.990;7.880;2022-11-21T11:05:20;6.97;;;1.70;;
16640;SDS011;8434;47.990;7.880;2022-11-21T11:08:07;5.73;;;1.50;;
16640;SDS011;8434;47.990;7.880;2022-11-21T11:11:03;5.83;;;1.30;;
16640;SDS011;8434;47.990;7.880;2022-11-21T11:13:52;8.03;;;1.90;;
16640;SDS011;8434;47.990;7.880;2022-11-21T11:16:41;6.57;;;1.50;;
16640;SDS011;8434;47.990;7.880;2022-11-21T11:19:27;6.10;;;2.43;;
16640;SDS011;8434;47.990;7.880;2022-11-21T11:22:20;8.53;;;1.70;;
16640;SDS011;8434;47.990;7.880;2022-11-21T11:25:10;5.20;;;1.67;;
16640;SDS011;8434;47.990;7.880;2022-11-21T11:27:55;5.47;;;1.50;;
16640;SDS011;8434;47.990;7.880;2022-11-21T11:30:43;6.67;;;1.47;;
16640;SDS011;8434;47.990;7.880;2022-11-21T11:33:32;4.80;;;1.10;;
16640;SDS011;8434;47.990;7.880;2022-11-21T11:36:22;9.80;;;2.83;;
16640;SDS011;8434;47.990;7.880;2022-11-21T11:39:16;3.60;;;1.10;;
16640;SDS011;8434;47.990;7.880;2022-11-21T11:42:10;3.13;;;1.10;;
16640;SDS011;8434;47.990;7.880;2022-11-21T11:45:14;5.03;;;1.47;;
16640;SDS011;8434;47.990;7.880;2022-11-21T11:48:17;2.37;;;1.10;;
16640;SDS011;8434;47.990;7.880;2022-11-21T11:51:03;8.17;;;1.87;;
16640;SDS011;8434;47.990;7.880;2022-11-21T11:53:50;4.57;;;1.00;;
16640;SDS011;8434;47.990;7.880;2022-11-21T11:56:38;6.73;;;1.60;;
16640;SDS011;8434;47.990;7.880;2022-11-21T11:59:25;4.90;;;1.60;;
16640;SDS011;8434;47.990;7.880;2022-11-21T12:02:17;2.83;;;1.60;;
16640;SDS011;8434;47.990;7.880;2022-11-21T12:05:05;4.47;;;2.27;;
16640;SDS011;8434;47.990;7.880;2022-11-21T12:07:55;6.00;;;1.73;;
16640;SDS011;8434;47.990;7.880;2022-11-21T12:10:44;3.40;;;1.23;;
16640;SDS011;8434;47.990;7.880;2022-11-21T12:13:51;4.37;;;1.97;;
16640;SDS011;8434;47.990;7.880;2022-11-21T12:16:36;4.10;;;1.30;;
16640;SDS011;8434;47.990;7.880;2022-11-21T12:19:23;2.77;;;1.10;;
16640;SDS011;8434;47.990;7.880;2022-11-21T12:22:09;7.27;;;1.37;;
16640;SDS011;8434;47.990;7.880;2022-11-21T12:24:55;3.13;;;1.40;;
16640;SDS011;8434;47.990;7.880;2022-11-21T12:27:40;3.77;;;1.13;;
16640;SDS011;8434;47.990;7.880;2022-11-21T12:30:37;3.83;;;1.10;;
16640;SDS011;8434;47.990;7.880;2022-11-21T12:33:25;4.63;;;1.13;;
16640;SDS011;8434;47.990;7.880;2022-11-21T12:36:16;4.13;;;0.97;;
16640;SDS011;8434;47.990;7.880;2022-11-21T12:39:18;3.20;;;0.97;;
16640;SDS011;8434;47.990;7.880;2022-11-21T12:42:05;4.90;;;1.03;;
16640;SDS011;8434;47.990;7.880;2022-11-21T12:45:19;5.33;;;2.10;;
16640;SDS011;8434;47.990;7.880;2022-11-21T12:51:34;5.93;;;2.47;;
16640;SDS011;8434;47.990;7.880;2022-11-21T12:57:42;5.23;;;1.20;;
16640;SDS011;8434;47.990;7.880;2022-11-21T13:00:30;3.17;;;1.13;;
16640;SDS011;8434;47.990;7.880;2022-11-21T13:03:36;2.33;;;0.90;;
16640;SDS011;8434;47.990;7.880;2022-11-21T13:06:24;2.87;;;1.17;;
16640;SDS011;8434;47.990;7.880;2022-11-21T13:09:13;1.67;;;1.10;;
16640;SDS011;8434;47.990;7.880;2022-11-21T13:11:59;0.90;;;0.60;;
16640;SDS011;8434;47.990;7.880;2022-11-21T13:14:48;4.20;;;0.80;;
16640;SDS011;8434;47.990;7.880;2022-11-21T13:17:39;3.13;;;1.00;;
16640;SDS011;8434;47.990;7.880;2022-11-21T13:20:27;2.40;;;0.77;;
16640;SDS011;8434;47.990;7.880;2022-11-21T13:29:19;10.67;;;3.33;;
16640;SDS011;8434;47.990;7.880;2022-11-21T13:35:10;5.03;;;1.50;;
16640;SDS011;8434;47.990;7.880;2022-11-21T13:38:14;4.97;;;1.23;;
16640;SDS011;8434;47.990;7.880;2022-11-21T13:40:59;3.70;;;1.07;;
16640;SDS011;8434;47.990;7.880;2022-11-21T13:47:03;4.33;;;0.90;;
16640;SDS011;8434;47.990;7.880;2022-11-21T13:49:54;3.13;;;1.10;;
16640;SDS011;8434;47.990;7.880;2022-11-21T13:52:42;4.60;;;1.30;;
16640;SDS011;8434;47.990;7.880;2022-11-21T13:58:44;6.03;;;1.23;;
16640;SDS011;8434;47.990;7.880;2022-11-21T14:01:42;2.73;;;1.30;;
16640;SDS011;8434;47.990;7.880;2022-11-21T14:07:40;4.97;;;1.37;;
16640;SDS011;8434;47.990;7.880;2022-11-21T14:10:29;4.67;;;1.50;;
16640;SDS011;8434;47.990;7.880;2022-11-21T14:13:18;4.83;;;1.03;;
16640;SDS011;8434;47.990;7.880;2022-11-21T14:16:12;4.37;;;1.17;;
16640;SDS011;8434;47.990;7.880;2022-11-21T14:19:01;5.63;;;1.27;;
16640;SDS011;8434;47.990;7.880;2022-11-21T14:21:47;3.83;;;1.30;;
16640;SDS011;8434;47.990;7.880;2022-11-21T14:24:33;2.67;;;1.60;;
16640;SDS011;8434;47.990;7.880;2022-11-21T14:27:21;4.13;;;1.60;;
16640;SDS011;8434;47.990;7.880;2022-11-21T14:30:23;7.67;;;1.80;;
16640;SDS011;8434;47.990;7.880;2022-11-21T14:33:23;4.57;;;1.37;;
16640;SDS011;8434;47.990;7.880;2022-11-21T14:36:10;3.10;;;0.93;;
16640;SDS011;8434;47.990;7.880;2022-11-21T14:38:57;2.47;;;1.00;;
16640;SDS011;8434;47.990;7.880;2022-11-21T14:41:43;4.30;;;1.20;;
16640;SDS011;8434;47.990;7.880;2022-11-21T14:44:28;4.17;;;1.20;;
16640;SDS011;8434;47.990;7.880;2022-11-21T14:47:14;5.90;;;1.57;;
16640;SDS011;8434;47.990;7.880;2022-11-21T14:50:00;7.57;;;1.73;;
16640;SDS011;8434;47.990;7.880;2022-11-21T14:52:47;4.30;;;1.17;;
16640;SDS011;8434;47.990;7.880;2022-11-21T14:55:39;5.13;;;1.43;;
16640;SDS011;8434;47.990;7.880;2022-11-21T14:58:25;5.67;;;1.40;;
16640;SDS011;8434;47.990;7.880;2022-11-21T15:01:18;6.77;;;1.97;;
16640;SDS011;8434;47.990;7.880;2022-11-21T15:04:05;6.07;;;1.80;;
16640;SDS011;8434;47.990;7.880;2022-11-21T15:06:52;5.70;;;1.60;;
16640;SDS011;8434;47.990;7.880;2022-11-21T15:09:37;3.97;;;2.63;;
16640;SDS011;8434;47.990;7.880;2022-11-21T15:12:23;4.87;;;2.13;;
16640;SDS011;8434;47.990;7.880;2022-11-21T15:15:14;6.03;;;2.50;;
16640;SDS011;8434;47.990;7.880;2022-11-21T15:18:03;6.67;;;3.30;;
16640;SDS011;8434;47.990;7.880;2022-11-21T15:20:49;5.17;;;2.60;;
16640;SDS011;8434;47.990;7.880;2022-11-21T15:23:36;3.60;;;2.33;;
16640;SDS011;8434;47.990;7.880;2022-11-21T15:26:27;4.47;;;2.20;;
16640;SDS011;8434;47.990;7.880;2022-11-21T15:29:17;5.10;;;1.50;;
16640;SDS011;8434;47.990;7.880;2022-11-21T15:32:06;3.87;;;1.53;;
16640;SDS011;8434;47.990;7.880;2022-11-21T15:34:52;4.23;;;1.77;;
16640;SDS011;8434;47.990;7.880;2022-11-21T15:37:36;3.63;;;2.20;;
16640;SDS011;8434;47.990;7.880;2022-11-21T15:40:23;4.73;;;2.00;;
16640;SDS011;8434;47.990;7.880;2022-11-21T15:43:08;6.10;;;2.00;;
16640;SDS011;8434;47.990;7.880;2022-11-21T15:45:59;4.70;;;2.10;;
16640;SDS011;8434;47.990;7.880;2022-11-21T15:48:44;6.23;;;3.00;;
16640;SDS011;8434;47.990;7.880;2022-11-21T15:51:30;9.43;;;2.70;;
16640;SDS011;8434;47.990;7.880;2022-11-21T15:54:17;6.07;;;2.73;;
16640;SDS011;8434;47.990;7.880;2022-11-21T15:57:03;7.93;;;2.80;;
16640;SDS011;8434;47.990;7.880;2022-11-21T15:59:48;4.83;;;2.73;;
16640;SDS011;8434;47.990;7.880;2022-11-21T16:02:33;13.60;;;2.90;;
16640;SDS011;8434;47.990;7.880;2022-11-21T16:05:18;3.77;;;1.70;;
16640;SDS011;8434;47.990;7.880;2022-11-21T16:08:03;3.40;;;1.20;;
16640;SDS011;8434;47.990;7.880;2022-11-21T16:10:48;5.83;;;1.40;;
16640;SDS011;8434;47.990;7.880;2022-11-21T16:13:34;5.57;;;1.93;;
16640;SDS011;8434;47.990;7.880;2022-11-21T16:16:19;4.23;;;2.10;;
16640;SDS011;8434;47.990;7.880;2022-11-21T16:19:04;3.53;;;2.17;;
16640;SDS011;8434;47.990;7.880;2022-11-21T16:21:49;4.63;;;3.07;;
16640;SDS011;8434;47.990;7.880;2022-11-21T16:24:34;3.73;;;1.40;;
16640;SDS011;8434;47.990;7.880;2022-11-21T16:27:19;3.30;;;1.73;;
16640;SDS011;8434;47.990;7.880;2022-11-21T16:30:06;5.87;;;1.50;;
16640;SDS011;8434;47.990;7.880;2022-11-21T16:32:51;3.33;;;1.97;;
16640;SDS011;8434;47.990;7.880;2022-11-21T16:35:38;3.37;;;1.90;;
16640;SDS011;8434;47.990;7.880;2022-11-21T16:38:23;3.07;;;1.63;;
16640;SDS011;8434;47.990;7.880;2022-11-21T16:41:08;6.67;;;2.03;;
16640;SDS011;8434;47.990;7.880;2022-11-21T16:43:54;5.50;;;1.80;;
16640;SDS011;8434;47.990;7.880;2022-11-21T16:46:41;3.77;;;1.73;;
16640;SDS011;8434;47.990;7.880;2022-11-21T16:49:26;4.00;;;2.13;;
16640;SDS011;8434;47.990;7.880;2022-11-21T16:52:11;3.57;;;2.80;;
16640;SDS011;8434;47.990;7.880;2022-11-21T16:54:57;6.67;;;2.93;;
16640;SDS011;8434;47.990;7.880;2022-11-21T16:57:42;3.63;;;2.70;;
16640;SDS011;8434;47.990;7.880;2022-11-21T17:00:26;4.80;;;2.60;;
16640;SDS011;8434;47.990;7.880;2022-11-21T17:03:13;2.77;;;1.90;;
16640;SDS011;8434;47.990;7.880;2022-11-21T17:05:58;3.73;;;1.60;;
16640;SDS011;8434;47.990;7.880;2022-11-21T17:08:43;6.10;;;1.63;;
16640;SDS011;8434;47.990;7.880;2022-11-21T17:11:29;4.30;;;1.70;;
16640;SDS011;8434;47.990;7.880;2022-11-21T17:14:14;4.10;;;1.73;;
16640;SDS011;8434;47.990;7.880;2022-11-21T17:16:59;5.10;;;1.90;;
16640;SDS011;8434;47.990;7.880;2022-11-21T17:19:45;6.40;;;1.87;;
16640;SDS011;8434;47.990;7.880;2022-11-21T17:22:32;4.57;;;1.90;;
16640;SDS011;8434;47.990;7.880;2022-11-21T17:25:17;5.57;;;1.80;;
16640;SDS011;8434;47.990;7.880;2022-11-21T17:28:02;3.83;;;2.20;;
16640;SDS011;8434;47.990;7.880;2022-11-21T17:30:47;5.37;;;2.90;;
16640;SDS011;8434;47.990;7.880;2022-11-21T17:33:32;6.67;;;4.67;;